Time;durP1;ratioP1;P1;durP2;ratioP2;P2;SDS_P1;SDS_P2;PMS_P1;PMS_P2;Temp;Humidity;BMP_temperature;BMP_pressure;BME280_temperature;BME280_humidity;BME280_pressure;Samples;Min_cycle;Max_cycle;Signal;HPM_P1;HPM_P2
2022/06/24 00:02:01;;;;;;;6.78;2.63;;;17.80;99.90;;;;;;5079404;28;20052;-58
2022/06/24 00:04:29;;;;;;;12.77;3.42;;;17.80;99.90;;;;;;5087607;28;20044;-58
2022/06/24 00:06:56;;;;;;;6.40;2.85;;;17.70;99.90;;;;;;5079976;28;20063;-59
2022/06/24 00:09:29;;;;;;;9.65;3.00;;;17.60;99.90;;;;;;5076850;28;20084;-58
2022/06/24 00:12:09;;;;;;;8.67;3.10;;;17.60;99.90;;;;;;5082164;28;20800;-57
2022/06/24 00:14:37;;;;;;;8.52;5.38;;;17.60;99.90;;;;;;5084326;28;20376;-56
2022/06/24 00:17:10;;;;;;;11.30;3.38;;;17.50;99.90;;;;;;5079748;28;20071;-60
2022/06/24 00:19:57;;;;;;;7.28;2.92;;;17.40;99.90;;;;;;5077473;28;20140;-58
2022/06/24 00:22:25;;;;;;;7.90;3.30;;;17.40;99.90;;;;;;5081608;28;20080;-57
2022/06/24 00:25:07;;;;;;;9.07;3.42;;;17.40;99.90;;;;;;5084051;28;20059;-58
2022/06/24 00:27:34;;;;;;;9.98;4.38;;;17.30;99.90;;;;;;5079364;28;20138;-58
2022/06/24 00:30:13;;;;;;;8.25;4.18;;;17.20;99.90;;;;;;5076862;28;20559;-59
2022/06/24 00:32:41;;;;;;;15.68;4.90;;;17.10;99.90;;;;;;5081688;28;20048;-58
2022/06/24 00:35:15;;;;;;;9.55;4.47;;;17.10;99.90;;;;;;5082936;28;20061;-58
2022/06/24 00:37:43;;;;;;;9.20;4.20;;;17.10;99.90;;;;;;5078073;28;20114;-58
2022/06/24 00:40:13;;;;;;;9.57;4.32;;;17.00;99.90;;;;;;5077514;28;20049;-58
2022/06/24 00:42:46;;;;;;;6.97;3.53;;;16.90;99.90;;;;;;4731152;28;10000055;-58
2022/06/24 00:45:28;;;;;;;11.55;4.20;;;16.90;99.90;;;;;;5084257;28;20131;-58
2022/06/24 00:47:55;;;;;;;15.40;5.75;;;16.80;99.90;;;;;;5086997;28;20387;-58
2022/06/24 00:50:31;;;;;;;12.70;4.90;;;16.70;99.90;;;;;;5077945;28;20049;-58
2022/06/24 00:52:59;;;;;;;13.32;4.88;;;16.60;99.90;;;;;;5088813;28;20048;-58
2022/06/24 00:55:28;;;;;;;12.75;4.90;;;16.60;99.90;;;;;;5078636;28;20132;-60
2022/06/24 00:57:56;;;;;;;10.90;4.85;;;16.60;99.90;;;;;;5082167;28;20052;-58
2022/06/24 01:00:27;;;;;;;11.00;4.65;;;16.70;99.90;;;;;;5078545;28;20082;-58
2022/06/24 01:03:01;;;;;;;12.35;5.78;;;16.70;99.90;;;;;;5076763;28;20091;-58
2022/06/24 01:05:28;;;;;;;14.68;5.43;;;16.70;99.90;;;;;;5081131;28;20076;-58
2022/06/24 01:07:55;;;;;;;11.10;6.25;;;16.60;99.90;;;;;;5081923;28;20137;-57
2022/06/24 01:10:22;;;;;;;13.23;7.00;;;16.60;99.90;;;;;;5073650;28;20132;-58
2022/06/24 01:12:49;;;;;;;13.82;7.82;;;16.50;99.90;;;;;;5079479;28;20184;-58
2022/06/24 01:15:16;;;;;;;16.92;7.57;;;16.50;99.90;;;;;;5074449;28;20124;-58
2022/06/24 01:17:43;;;;;;;15.27;7.95;;;16.60;99.90;;;;;;5081583;28;20091;-58
2022/06/24 01:20:10;;;;;;;15.43;8.15;;;16.60;99.90;;;;;;5083078;28;20123;-58
2022/06/24 01:22:37;;;;;;;17.60;8.13;;;16.60;99.90;;;;;;5074804;28;20086;-57
2022/06/24 01:25:04;;;;;;;14.73;9.27;;;16.70;99.90;;;;;;5076909;28;20054;-58
2022/06/24 01:27:31;;;;;;;19.95;10.52;;;16.70;99.90;;;;;;5083140;28;20139;-57
2022/06/24 01:29:58;;;;;;;16.45;11.07;;;16.70;99.90;;;;;;5079500;28;20127;-58
2022/06/24 01:32:25;;;;;;;17.85;11.57;;;16.70;99.90;;;;;;5074016;28;20080;-58
2022/06/24 01:34:52;;;;;;;16.15;11.10;;;16.60;99.90;;;;;;5080583;28;20053;-57
2022/06/24 01:37:19;;;;;;;22.15;12.52;;;16.60;99.90;;;;;;5082980;28;20083;-58
2022/06/24 01:39:45;;;;;;;23.55;11.57;;;16.60;99.90;;;;;;5077756;28;20099;-59
2022/06/24 01:42:12;;;;;;;19.95;10.95;;;16.70;99.90;;;;;;5076054;28;20102;-58
2022/06/24 01:44:39;;;;;;;19.88;11.63;;;16.70;99.90;;;;;;5084725;28;20075;-58
2022/06/24 01:47:10;;;;;;;23.15;12.30;;;16.60;99.90;;;;;;5084683;28;20050;-59
2022/06/24 01:49:37;;;;;;;19.58;12.38;;;16.60;99.90;;;;;;5076041;28;20048;-57
2022/06/24 01:52:04;;;;;;;20.52;14.05;;;16.60;99.90;;;;;;5080130;28;20101;-58
2022/06/24 01:54:31;;;;;;;22.40;13.02;;;16.70;99.90;;;;;;5080133;28;20071;-58
2022/06/24 01:56:58;;;;;;;21.63;12.90;;;16.70;99.90;;;;;;5073767;28;20091;-58
2022/06/24 01:59:24;;;;;;;25.42;13.00;;;16.80;99.90;;;;;;5078128;28;20125;-57
2022/06/24 02:01:51;;;;;;;20.58;13.15;;;16.80;99.90;;;;;;5082416;28;20543;-58
2022/06/24 02:04:18;;;;;;;22.52;13.20;;;16.80;99.90;;;;;;5076241;28;20071;-57
2022/06/24 02:06:45;;;;;;;20.95;13.10;;;16.80;99.90;;;;;;5085299;28;20047;-58
2022/06/24 02:09:11;;;;;;;21.30;11.20;;;16.90;99.90;;;;;;5074201;28;20097;-58
2022/06/24 02:14:23;;;;;;;20.80;11.73;;;17.00;99.90;;;;;;5072339;28;20049;-57
2022/06/24 02:16:50;;;;;;;22.38;11.95;;;16.90;99.90;;;;;;5079574;28;20040;-58
2022/06/24 02:19:17;;;;;;;26.58;12.35;;;17.00;99.90;;;;;;5071850;28;20102;-60
2022/06/24 02:21:44;;;;;;;22.63;14.38;;;17.00;99.90;;;;;;5077708;28;20091;-58
2022/06/24 02:24:13;;;;;;;19.52;13.32;;;17.00;99.90;;;;;;5079202;28;20471;-59
2022/06/24 02:26:40;;;;;;;23.80;12.20;;;17.00;99.90;;;;;;5078916;28;20136;-58
2022/06/24 02:29:11;;;;;;;22.92;11.55;;;17.10;99.90;;;;;;5082442;28;20045;-58
2022/06/24 02:31:38;;;;;;;22.30;12.60;;;17.00;99.90;;;;;;5076242;28;20075;-58
2022/06/24 02:34:05;;;;;;;21.10;13.63;;;17.00;99.90;;;;;;5074566;28;20132;-58
2022/06/24 02:36:32;;;;;;;19.45;11.68;;;16.90;99.90;;;;;;5079236;28;20095;-57
2022/06/24 02:38:58;;;;;;;19.63;12.98;;;16.90;99.90;;;;;;5079677;28;20090;-58
2022/06/24 02:41:26;;;;;;;21.02;14.02;;;16.80;99.90;;;;;;5075563;28;20461;-58
2022/06/24 02:43:53;;;;;;;20.08;11.63;;;16.80;99.90;;;;;;5080114;28;20044;-58
2022/06/24 02:46:20;;;;;;;20.33;12.77;;;16.70;99.90;;;;;;5075364;28;20127;-57
2022/06/24 02:48:47;;;;;;;23.88;13.18;;;16.60;99.90;;;;;;5080689;28;20098;-58
2022/06/24 02:51:14;;;;;;;17.63;11.98;;;16.60;99.90;;;;;;5078958;28;20044;-57
2022/06/24 02:53:41;;;;;;;25.10;15.90;;;16.60;99.90;;;;;;5069207;28;20044;-57
2022/06/24 02:56:10;;;;;;;21.73;11.95;;;16.60;99.90;;;;;;5076938;28;20073;-57
2022/06/24 02:58:37;;;;;;;21.42;13.77;;;16.60;99.90;;;;;;5068090;28;20111;-62
2022/06/24 03:01:04;;;;;;;24.48;12.57;;;16.50;99.90;;;;;;5083584;28;20048;-57
2022/06/24 03:03:31;;;;;;;20.65;11.88;;;16.50;99.90;;;;;;5074469;28;20531;-58
2022/06/24 03:05:58;;;;;;;21.60;12.48;;;16.50;99.90;;;;;;5082612;28;20097;-58
2022/06/24 03:08:26;;;;;;;15.55;10.98;;;16.40;99.90;;;;;;5078775;28;20079;-57
2022/06/24 03:10:53;;;;;;;20.73;11.30;;;16.40;99.90;;;;;;5072859;28;20445;-57
2022/06/24 03:13:20;;;;;;;17.60;11.00;;;16.40;99.90;;;;;;5077190;28;20076;-57
2022/06/24 03:15:48;;;;;;;18.35;11.55;;;16.30;99.90;;;;;;5073908;28;20169;-58
2022/06/24 03:18:15;;;;;;;18.88;12.13;;;16.30;99.90;;;;;;5079322;28;20123;-58
2022/06/24 03:20:42;;;;;;;18.42;10.23;;;16.30;99.90;;;;;;5080818;28;20127;-56
2022/06/24 03:23:13;;;;;;;19.15;10.32;;;16.20;99.90;;;;;;5078885;28;20040;-58
2022/06/24 03:25:40;;;;;;;26.00;12.32;;;16.20;99.90;;;;;;5079805;28;20051;-58
2022/06/24 03:28:07;;;;;;;22.45;10.55;;;16.20;99.90;;;;;;5075532;28;20076;-58
2022/06/24 03:30:34;;;;;;;18.38;10.80;;;16.30;99.90;;;;;;5076869;28;20575;-57
2022/06/24 03:33:01;;;;;;;24.50;12.50;;;16.30;99.90;;;;;;5079853;28;20044;-57
2022/06/24 03:35:28;;;;;;;17.30;10.88;;;16.30;99.90;;;;;;5075764;28;20464;-58
2022/06/24 03:37:55;;;;;;;18.15;11.25;;;16.30;99.90;;;;;;5076382;28;20083;-58
2022/06/24 03:40:21;;;;;;;14.45;10.18;;;16.30;99.90;;;;;;5075349;28;20052;-58
2022/06/24 03:42:48;;;;;;;16.67;11.57;;;16.40;99.90;;;;;;5081083;28;20063;-58
2022/06/24 03:45:15;;;;;;;16.85;10.77;;;16.40;99.90;;;;;;5082072;28;20071;-59
2022/06/24 03:47:42;;;;;;;21.70;12.18;;;16.40;99.90;;;;;;5082224;28;20072;-58
2022/06/24 03:50:09;;;;;;;24.88;12.32;;;16.40;99.90;;;;;;5085121;28;20122;-58
2022/06/24 03:52:35;;;;;;;22.00;11.13;;;16.40;99.90;;;;;;5076400;28;20056;-57
2022/06/24 03:55:03;;;;;;;24.60;11.85;;;16.30;99.90;;;;;;5072980;28;20474;-57
2022/06/24 03:57:30;;;;;;;18.70;12.20;;;16.20;99.90;;;;;;5084607;28;20083;-57
2022/06/24 03:59:56;;;;;;;22.27;13.25;;;16.30;99.90;;;;;;5081228;28;20048;-58
2022/06/24 04:02:23;;;;;;;18.15;11.18;;;16.30;99.90;;;;;;5075371;28;20077;-58
2022/06/24 04:04:50;;;;;;;20.65;11.45;;;16.30;99.90;;;;;;5077482;28;20044;-59
2022/06/24 04:07:17;;;;;;;19.55;11.63;;;16.30;99.90;;;;;;5075605;28;20505;-58
2022/06/24 04:09:44;;;;;;;18.02;11.32;;;16.30;99.90;;;;;;5081729;28;20106;-59
2022/06/24 04:12:11;;;;;;;19.50;10.35;;;16.30;99.90;;;;;;5082724;28;20048;-60
2022/06/24 04:17:23;;;;;;;24.58;14.05;;;16.30;99.90;;;;;;5082540;28;20090;-59
2022/06/24 04:19:52;;;;;;;19.27;13.43;;;16.30;99.90;;;;;;5078172;28;20177;-59
2022/06/24 04:22:20;;;;;;;18.25;11.18;;;16.20;99.90;;;;;;5078862;28;20131;-59
2022/06/24 04:24:47;;;;;;;18.77;11.80;;;16.20;99.90;;;;;;5082859;28;20079;-59
2022/06/24 04:27:14;;;;;;;18.45;10.82;;;16.20;99.90;;;;;;5078624;28;20507;-59
2022/06/24 04:29:40;;;;;;;22.33;12.85;;;16.20;99.90;;;;;;5077185;28;20053;-60
2022/06/24 04:32:07;;;;;;;17.38;11.70;;;16.20;99.90;;;;;;5083677;28;20076;-59
2022/06/24 04:34:38;;;;;;;18.23;11.75;;;16.20;99.90;;;;;;5079269;28;20048;-59
2022/06/24 04:37:06;;;;;;;20.27;11.98;;;16.20;99.90;;;;;;5085454;28;20427;-57
2022/06/24 04:39:33;;;;;;;16.77;10.60;;;16.20;99.90;;;;;;5080900;28;20045;-59
2022/06/24 04:42:00;;;;;;;20.13;11.60;;;16.20;99.90;;;;;;5083688;28;20113;-58
2022/06/24 04:44:26;;;;;;;17.00;11.70;;;16.20;99.90;;;;;;5073989;28;20073;-58
2022/06/24 04:46:53;;;;;;;15.40;11.02;;;16.10;99.90;;;;;;5086876;28;20086;-57
2022/06/24 04:49:20;;;;;;;18.42;12.75;;;16.10;99.90;;;;;;5083310;28;20084;-58
2022/06/24 04:51:47;;;;;;;14.45;11.57;;;16.10;99.90;;;;;;5079908;28;20127;-58
2022/06/24 04:54:14;;;;;;;16.27;11.82;;;16.20;99.90;;;;;;5082197;28;20079;-58
2022/06/24 04:56:40;;;;;;;16.45;10.73;;;16.20;99.90;;;;;;5079185;28;20047;-57
2022/06/24 04:59:07;;;;;;;18.65;12.40;;;16.20;99.90;;;;;;5074717;28;20044;-58
2022/06/24 05:01:34;;;;;;;20.83;10.88;;;16.20;99.90;;;;;;5080455;28;20083;-58
2022/06/24 05:04:01;;;;;;;18.13;10.45;;;16.10;99.90;;;;;;5081403;28;20047;-57
2022/06/24 05:06:28;;;;;;;21.17;12.23;;;16.10;99.90;;;;;;5077829;28;20062;-58
2022/06/24 05:08:55;;;;;;;17.48;10.95;;;16.10;99.90;;;;;;5078177;28;20083;-56
2022/06/24 05:11:21;;;;;;;16.23;10.35;;;16.10;99.90;;;;;;5080427;28;20086;-57
2022/06/24 05:13:49;;;;;;;16.02;11.43;;;16.10;99.90;;;;;;5077909;28;20044;-57
2022/06/24 05:16:16;;;;;;;22.88;11.10;;;16.00;99.90;;;;;;5075933;28;20495;-57
2022/06/24 05:19:03;;;;;;;16.20;10.02;;;16.00;99.90;;;;;;5079005;28;20407;-58
2022/06/24 05:21:30;;;;;;;21.25;11.27;;;16.10;99.90;;;;;;5081407;28;20044;-57
2022/06/24 05:23:56;;;;;;;18.05;11.05;;;16.10;99.90;;;;;;5075804;28;20083;-57
2022/06/24 05:26:23;;;;;;;17.13;9.82;;;16.20;99.90;;;;;;5077467;28;20326;-57
2022/06/24 05:28:50;;;;;;;20.63;10.57;;;16.20;99.90;;;;;;5082591;28;20251;-58
2022/06/24 05:31:17;;;;;;;20.77;9.98;;;16.30;99.90;;;;;;5077508;28;20075;-57
2022/06/24 05:33:44;;;;;;;14.70;9.98;;;16.20;99.90;;;;;;5074069;28;20428;-56
2022/06/24 05:36:10;;;;;;;22.65;11.55;;;16.30;99.90;;;;;;5082274;28;20120;-59
2022/06/24 05:38:37;;;;;;;16.52;9.30;;;16.20;99.90;;;;;;5081697;28;20574;-59
2022/06/24 05:41:11;;;;;;;12.73;9.63;;;16.30;99.90;;;;;;5073813;28;20085;-58
2022/06/24 05:43:37;;;;;;;19.50;10.35;;;16.30;99.90;;;;;;5077679;28;20102;-58
2022/06/24 05:46:04;;;;;;;19.60;8.52;;;16.30;99.90;;;;;;5086499;28;20113;-59
2022/06/24 05:48:31;;;;;;;14.43;7.50;;;16.30;99.90;;;;;;5084205;28;20059;-58
2022/06/24 05:50:58;;;;;;;17.20;8.00;;;16.30;99.90;;;;;;5084737;28;20492;-59
2022/06/24 05:56:10;;;;;;;14.30;8.30;;;16.20;99.90;;;;;;5086230;28;20564;-58
2022/06/24 05:58:37;;;;;;;13.23;7.90;;;16.40;99.90;;;;;;5086954;28;20059;-59
2022/06/24 06:01:11;;;;;;;16.05;8.80;;;16.30;99.90;;;;;;5084479;28;20048;-59
2022/06/24 06:03:38;;;;;;;20.60;9.18;;;16.40;99.90;;;;;;5076661;28;20052;-58
2022/06/24 06:06:06;;;;;;;17.80;8.82;;;16.50;99.90;;;;;;5075734;28;20084;-59
2022/06/24 06:08:33;;;;;;;15.45;8.15;;;16.50;99.90;;;;;;5078978;28;20096;-59
2022/06/24 06:11:00;;;;;;;13.40;7.85;;;16.50;99.90;;;;;;5079079;28;20421;-59
2022/06/24 06:13:27;;;;;;;14.00;8.38;;;16.60;99.90;;;;;;5075215;28;20134;-60
2022/06/24 06:15:53;;;;;;;16.08;7.82;;;16.60;99.90;;;;;;5079043;28;20110;-59
2022/06/24 06:18:21;;;;;;;15.38;7.50;;;16.70;99.90;;;;;;5083762;28;20047;-60
2022/06/24 06:20:47;;;;;;;17.27;7.95;;;16.70;99.90;;;;;;4718311;27;9999964;-61
2022/06/24 06:23:14;;;;;;;13.73;7.25;;;16.70;99.90;;;;;;5073669;28;20580;-59
2022/06/24 06:25:41;;;;;;;10.82;6.65;;;16.70;99.90;;;;;;5070099;28;20503;-59
2022/06/24 06:28:08;;;;;;;13.50;7.72;;;16.80;99.90;;;;;;5075593;28;20143;-59
2022/06/24 06:30:35;;;;;;;13.50;6.97;;;16.80;99.90;;;;;;5078248;28;20051;-58
2022/06/24 06:33:01;;;;;;;12.93;7.00;;;16.90;99.90;;;;;;5069974;28;20071;-59
2022/06/24 06:35:28;;;;;;;13.35;7.65;;;16.80;99.90;;;;;;5072719;28;20048;-59
2022/06/24 06:37:55;;;;;;;11.40;6.72;;;16.90;99.90;;;;;;5082012;28;20498;-59
2022/06/24 06:40:22;;;;;;;15.80;7.15;;;17.00;99.90;;;;;;5077982;28;20080;-59
2022/06/24 06:42:52;;;;;;;10.25;6.85;;;17.00;99.90;;;;;;5080856;28;20052;-59
2022/06/24 06:45:20;;;;;;;10.40;5.53;;;17.20;99.90;;;;;;5083515;28;20139;-59
2022/06/24 06:47:46;;;;;;;12.52;5.80;;;17.20;99.90;;;;;;5085151;28;20048;-59
2022/06/24 06:50:13;;;;;;;8.02;5.43;;;17.20;99.90;;;;;;5085743;28;20052;-59
2022/06/24 06:52:40;;;;;;;8.25;4.72;;;17.30;99.90;;;;;;5084236;28;20129;-62
2022/06/24 06:55:07;;;;;;;9.55;5.22;;;17.40;99.90;;;;;;5085008;28;20048;-59
2022/06/24 06:57:34;;;;;;;6.78;4.22;;;17.50;99.90;;;;;;5085647;28;20102;-60
2022/06/24 07:00:01;;;;;;;11.63;4.63;;;17.60;99.90;;;;;;5084760;28;20095;-60
2022/06/24 07:02:28;;;;;;;8.38;4.55;;;17.60;99.90;;;;;;5078094;28;20056;-58
2022/06/24 07:04:56;;;;;;;8.65;5.30;;;17.60;99.90;;;;;;5079698;28;20411;-58
2022/06/24 07:07:22;;;;;;;7.75;4.32;;;17.70;99.90;;;;;;5073929;28;20411;-58
2022/06/24 07:09:51;;;;;;;6.40;3.90;;;17.70;99.90;;;;;;5075969;28;20048;-58
2022/06/24 07:12:18;;;;;;;6.53;4.05;;;17.70;99.90;;;;;;5081511;28;20434;-58
2022/06/24 07:14:44;;;;;;;6.05;4.13;;;17.70;99.90;;;;;;5080378;28;20052;-58
2022/06/24 07:17:14;;;;;;;6.63;3.97;;;17.70;99.90;;;;;;5076910;28;20059;-58
2022/06/24 07:19:41;;;;;;;8.68;3.75;;;17.70;99.90;;;;;;5083928;28;20049;-59
2022/06/24 07:22:08;;;;;;;6.30;3.95;;;17.80;99.90;;;;;;5084714;28;20097;-58
2022/06/24 07:24:35;;;;;;;7.90;3.72;;;17.80;99.90;;;;;;5076295;28;20071;-58
2022/06/24 07:27:06;;;;;;;8.23;3.53;;;17.90;99.90;;;;;;5079441;28;20076;-58
2022/06/24 07:29:33;;;;;;;10.63;3.70;;;17.90;99.90;;;;;;5085471;28;20562;-59
2022/06/24 07:32:04;;;;;;;8.07;3.00;;;18.00;99.90;;;;;;5081289;28;20044;-58
2022/06/24 07:34:31;;;;;;;5.55;3.28;;;18.00;99.90;;;;;;5075060;28;20102;-58
2022/06/24 07:36:59;;;;;;;6.22;2.70;;;18.00;99.90;;;;;;5081213;28;20052;-58
2022/06/24 07:39:26;;;;;;;7.30;2.90;;;18.10;99.90;;;;;;5074558;28;20079;-59
2022/06/24 07:41:53;;;;;;;8.00;3.33;;;18.20;99.90;;;;;;5089013;28;20048;-59
2022/06/24 07:44:20;;;;;;;6.85;3.20;;;18.20;99.90;;;;;;5077240;28;20103;-59
2022/06/24 07:46:47;;;;;;;6.82;2.85;;;18.30;99.90;;;;;;5079275;28;20044;-58
2022/06/24 07:49:15;;;;;;;7.47;2.92;;;18.30;99.90;;;;;;5079728;28;20041;-59
2022/06/24 07:51:42;;;;;;;8.20;2.92;;;18.40;99.90;;;;;;5082438;28;20075;-58
2022/06/24 07:54:08;;;;;;;6.00;3.08;;;18.50;99.90;;;;;;5061813;28;20105;-58
2022/06/24 07:59:21;;;;;;;9.55;2.97;;;18.60;99.90;;;;;;5081343;28;20083;-59
2022/06/24 08:01:48;;;;;;;5.88;2.70;;;18.70;99.90;;;;;;5081260;28;20495;-59
2022/06/24 08:04:15;;;;;;;3.55;2.60;;;18.70;99.90;;;;;;5076174;28;20040;-59
2022/06/24 08:06:46;;;;;;;3.67;2.50;;;18.80;99.90;;;;;;5078664;28;20049;-59
2022/06/24 08:09:17;;;;;;;4.53;2.42;;;18.90;99.90;;;;;;5082605;28;20127;-60
2022/06/24 08:11:44;;;;;;;4.72;2.30;;;19.00;99.90;;;;;;5079826;28;20102;-59
2022/06/24 08:14:12;;;;;;;5.50;1.70;;;19.00;99.90;;;;;;5075545;28;20075;-61
2022/06/24 08:16:39;;;;;;;5.70;2.53;;;19.20;99.90;;;;;;5082141;28;20094;-59
2022/06/24 08:19:12;;;;;;;3.67;2.20;;;19.20;99.90;;;;;;5082738;28;20048;-60
2022/06/24 08:21:39;;;;;;;4.70;2.47;;;19.20;99.90;;;;;;5075946;28;20071;-60
2022/06/24 08:24:06;;;;;;;3.22;2.13;;;19.20;99.90;;;;;;5076883;28;20090;-61
2022/06/24 08:26:33;;;;;;;7.78;2.45;;;19.20;99.90;;;;;;5084555;28;20136;-59
2022/06/24 08:29:00;;;;;;;5.65;2.72;;;19.30;99.90;;;;;;5080126;28;20048;-59
2022/06/24 08:31:27;;;;;;;5.82;2.30;;;19.40;99.90;;;;;;5074770;28;20186;-59
2022/06/24 08:33:54;;;;;;;9.15;3.00;;;19.50;99.90;;;;;;5078107;28;20052;-59
2022/06/24 08:36:26;;;;;;;5.32;1.95;;;19.60;99.90;;;;;;4721919;28;10000175;-60
2022/06/24 08:38:56;;;;;;;4.78;2.15;;;19.60;99.90;;;;;;5080073;28;20052;-60
2022/06/24 08:41:24;;;;;;;4.97;2.00;;;19.60;99.90;;;;;;5082515;28;20098;-60
2022/06/24 08:43:52;;;;;;;8.23;2.30;;;19.50;99.90;;;;;;5078452;28;20044;-60
2022/06/24 08:46:19;;;;;;;4.22;1.73;;;19.60;99.90;;;;;;5084181;28;20040;-59
2022/06/24 08:48:46;;;;;;;3.55;2.50;;;19.70;99.90;;;;;;5084174;28;20541;-57
2022/06/24 08:51:13;;;;;;;4.53;2.72;;;19.80;99.90;;;;;;5079718;28;20071;-59
2022/06/24 08:53:40;;;;;;;5.22;1.90;;;19.90;99.90;;;;;;5079116;28;20048;-58
2022/06/24 08:56:07;;;;;;;2.70;1.70;;;20.00;99.90;;;;;;5081298;28;20123;-60
2022/06/24 08:58:35;;;;;;;4.90;2.10;;;20.00;99.90;;;;;;5081393;28;20048;-58
2022/06/24 09:01:05;;;;;;;5.60;1.92;;;20.20;99.90;;;;;;5071943;28;20050;-59
2022/06/24 09:03:32;;;;;;;10.25;2.53;;;20.50;99.90;;;;;;5079232;28;20474;-59
2022/06/24 09:05:59;;;;;;;6.78;2.05;;;20.50;99.90;;;;;;5074543;28;20191;-59
2022/06/24 09:08:32;;;;;;;3.95;2.20;;;20.60;99.90;;;;;;5113273;27;20075;-59
2022/06/24 09:11:08;;;;;;;2.90;1.85;;;20.50;99.90;;;;;;5083150;28;20482;-59
2022/06/24 09:13:42;;;;;;;6.32;1.98;;;20.50;99.90;;;;;;5076584;28;20388;-63
2022/06/24 09:16:09;;;;;;;3.00;2.00;;;20.50;99.90;;;;;;5074695;28;20573;-59
2022/06/24 09:18:36;;;;;;;4.47;1.90;;;20.50;99.90;;;;;;5082236;28;20051;-60
2022/06/24 09:21:03;;;;;;;7.70;1.75;;;20.60;99.90;;;;;;5083379;28;21021;-59
2022/06/24 09:23:30;;;;;;;5.43;2.22;;;20.60;99.90;;;;;;5073441;28;20076;-60
2022/06/24 09:26:01;;;;;;;7.85;2.92;;;20.70;99.90;;;;;;5076689;28;20111;-60
2022/06/24 09:28:32;;;;;;;3.15;1.83;;;20.70;99.90;;;;;;5083731;28;20510;-60
2022/06/24 09:31:03;;;;;;;5.00;2.33;;;20.60;99.90;;;;;;5079150;28;20494;-60
2022/06/24 09:33:37;;;;;;;10.57;2.13;;;20.50;99.90;;;;;;5081181;28;20058;-59
2022/06/24 09:36:05;;;;;;;11.05;2.25;;;20.50;99.90;;;;;;5078074;28;20131;-59
2022/06/24 09:38:32;;;;;;;6.22;2.22;;;20.50;99.90;;;;;;5086220;28;20281;-59
2022/06/24 09:41:00;;;;;;;5.15;2.28;;;20.60;99.90;;;;;;5077277;28;20048;-60
2022/06/24 09:43:31;;;;;;;5.90;3.28;;;20.70;99.90;;;;;;5107267;27;20052;-60
2022/06/24 09:45:58;;;;;;;8.07;2.20;;;20.80;99.90;;;;;;5084552;28;20123;-60
2022/06/24 09:48:30;;;;;;;5.40;1.75;;;21.00;99.90;;;;;;5083306;28;20123;-60
2022/06/24 09:51:07;;;;;;;5.68;1.73;;;21.00;99.90;;;;;;5084708;28;20043;-59
2022/06/24 09:53:35;;;;;;;5.18;1.45;;;21.00;99.90;;;;;;5076675;28;20044;-59
2022/06/24 09:56:09;;;;;;;5.95;1.42;;;21.10;99.90;;;;;;5083640;28;20087;-60
2022/06/24 09:58:42;;;;;;;3.13;1.13;;;21.30;99.90;;;;;;5079928;28;20077;-59
2022/06/24 10:01:10;;;;;;;5.38;1.65;;;21.40;99.90;;;;;;5077204;28;20078;-59
2022/06/24 10:03:38;;;;;;;8.00;1.90;;;21.40;99.60;;;;;;5077289;28;20052;-59
2022/06/24 10:06:08;;;;;;;4.57;1.65;;;21.30;99.90;;;;;;5068873;28;20376;-59
2022/06/24 10:08:36;;;;;;;3.10;1.88;;;21.30;99.90;;;;;;5079771;28;20047;-59
2022/06/24 10:11:22;;;;;;;6.20;1.70;;;21.30;99.90;;;;;;5080738;28;20053;-59
2022/06/24 10:13:49;;;;;;;2.50;1.25;;;21.50;99.90;;;;;;5075504;28;20075;-58
2022/06/24 10:16:16;;;;;;;4.88;1.75;;;21.70;99.30;;;;;;5067067;28;20068;-58
2022/06/24 10:18:43;;;;;;;5.88;1.70;;;21.60;98.70;;;;;;5082973;28;20044;-62
2022/06/24 10:21:11;;;;;;;2.90;1.65;;;21.40;98.90;;;;;;5077407;28;20561;-60
2022/06/24 10:23:39;;;;;;;4.50;1.80;;;21.30;99.60;;;;;;5068806;28;20040;-59
2022/06/24 10:26:10;;;;;;;6.75;1.52;;;21.40;99.60;;;;;;5079432;28;20072;-60
2022/06/24 10:29:04;;;;;;;9.30;3.38;;;21.20;99.40;;;;;;5082458;28;20052;-59
2022/06/24 10:31:44;;;;;;;6.60;1.30;;;21.40;99.00;;;;;;5080741;28;20425;-60
2022/06/24 10:34:11;;;;;;;4.93;1.58;;;21.90;98.30;;;;;;5071860;28;20056;-60
2022/06/24 10:36:38;;;;;;;7.28;1.52;;;22.20;99.10;;;;;;5077188;28;20080;-58
2022/06/24 10:39:14;;;;;;;9.95;2.05;;;22.30;98.90;;;;;;5073738;28;20134;-58
2022/06/24 10:41:41;;;;;;;5.10;1.60;;;22.10;98.10;;;;;;5078608;28;20054;-59
2022/06/24 10:44:23;;;;;;;4.57;1.42;;;22.00;98.10;;;;;;5081783;28;20128;-59
2022/06/24 10:47:08;;;;;;;5.28;1.27;;;21.90;98.50;;;;;;5076580;28;20347;-58
2022/06/24 10:50:13;;;;;;;7.40;2.25;;;21.80;98.20;;;;;;5081279;28;20041;-59
2022/06/24 10:52:51;;;;;;;2.08;1.65;;;21.70;98.70;;;;;;5079759;28;20044;-59
2022/06/24 10:55:18;;;;;;;6.85;1.98;;;21.60;98.80;;;;;;5073930;28;20101;-59
2022/06/24 10:57:47;;;;;;;4.55;1.50;;;21.60;99.20;;;;;;5080101;28;20468;-59
2022/06/24 11:00:21;;;;;;;6.45;2.00;;;21.60;99.50;;;;;;5075386;28;20176;-59
2022/06/24 11:02:55;;;;;;;4.40;2.08;;;21.70;99.20;;;;;;5074633;28;20052;-59
2022/06/24 11:05:24;;;;;;;6.03;2.45;;;21.80;99.40;;;;;;5078413;28;20106;-59
2022/06/24 11:07:51;;;;;;;3.20;1.50;;;22.00;99.40;;;;;;5079184;28;20056;-59
2022/06/24 11:10:22;;;;;;;4.65;1.95;;;22.10;99.20;;;;;;5069354;28;20091;-59
2022/06/24 11:12:58;;;;;;;5.78;1.65;;;22.10;98.70;;;;;;5083690;28;20287;-59
2022/06/24 11:15:38;;;;;;;6.78;1.60;;;22.10;98.90;;;;;;5073016;28;20051;-58
2022/06/24 11:18:14;;;;;;;2.53;1.48;;;22.30;97.10;;;;;;5076033;28;20052;-60
2022/06/24 11:20:49;;;;;;;3.83;1.48;;;22.30;97.30;;;;;;5081013;28;20140;-59
2022/06/24 11:23:20;;;;;;;7.65;1.80;;;22.30;96.90;;;;;;5077197;28;20044;-59
2022/06/24 11:25:51;;;;;;;6.85;1.40;;;22.20;97.50;;;;;;5073260;28;20091;-59
2022/06/24 11:28:22;;;;;;;2.92;1.35;;;22.20;97.50;;;;;;5077266;28;20075;-59
2022/06/24 11:30:50;;;;;;;9.15;1.70;;;22.10;97.40;;;;;;5081253;28;20171;-59
2022/06/24 11:33:16;;;;;;;4.40;1.35;;;22.10;97.40;;;;;;5074128;28;20422;-59
2022/06/24 11:35:45;;;;;;;3.58;1.33;;;22.20;97.70;;;;;;5072531;28;20095;-59
2022/06/24 11:38:20;;;;;;;4.55;1.42;;;22.30;97.80;;;;;;5079617;28;20072;-60
2022/06/24 11:40:49;;;;;;;6.53;1.98;;;22.60;97.40;;;;;;5081131;28;20075;-59
2022/06/24 11:43:16;;;;;;;9.25;1.67;;;22.60;96.20;;;;;;5071199;28;20075;-59
2022/06/24 11:45:44;;;;;;;2.83;1.30;;;22.60;96.40;;;;;;5060178;28;20131;-59
2022/06/24 11:48:12;;;;;;;2.78;1.13;;;22.70;95.60;;;;;;5081902;28;20466;-60
2022/06/24 11:50:39;;;;;;;4.90;1.60;;;22.90;95.80;;;;;;5058976;28;20048;-60
2022/06/24 11:53:07;;;;;;;4.68;1.88;;;23.00;95.80;;;;;;5072149;28;20040;-60
2022/06/24 11:55:42;;;;;;;3.05;1.40;;;23.10;95.50;;;;;;5085657;28;20526;-60
2022/06/24 11:58:11;;;;;;;4.43;1.48;;;23.20;95.20;;;;;;5081682;28;20492;-60
2022/06/24 12:00:39;;;;;;;4.82;1.63;;;23.20;94.60;;;;;;5079311;28;20202;-60
2022/06/24 12:03:08;;;;;;;4.50;1.60;;;23.20;94.70;;;;;;5075860;28;20082;-60
2022/06/24 12:05:37;;;;;;;5.68;1.73;;;23.20;94.70;;;;;;5081392;28;20049;-60
2022/06/24 12:08:05;;;;;;;3.45;1.92;;;23.30;94.10;;;;;;5082718;28;20079;-60
2022/06/24 12:10:32;;;;;;;6.68;1.70;;;23.20;94.50;;;;;;5060623;28;20056;-59
2022/06/24 12:13:03;;;;;;;2.83;1.50;;;23.10;94.90;;;;;;5078265;28;20045;-59
2022/06/24 12:15:36;;;;;;;4.25;1.63;;;23.10;94.70;;;;;;5081100;28;20086;-60
2022/06/24 12:18:12;;;;;;;5.22;1.55;;;23.00;93.80;;;;;;5080304;28;20064;-59
2022/06/24 12:20:39;;;;;;;7.97;1.83;;;23.00;93.70;;;;;;5075934;28;20084;-60
2022/06/24 12:23:16;;;;;;;6.93;2.15;;;23.20;94.20;;;;;;5080775;28;20040;-60
2022/06/24 12:25:45;;;;;;;6.35;1.75;;;23.20;93.50;;;;;;5082404;28;20048;-60
2022/06/24 12:28:23;;;;;;;3.83;1.60;;;23.20;94.00;;;;;;5078248;28;20129;-59
2022/06/24 12:30:56;;;;;;;4.22;1.80;;;23.30;93.60;;;;;;5077127;28;20140;-58
2022/06/24 12:33:24;;;;;;;3.97;1.60;;;23.50;93.50;;;;;;5079126;28;20060;-59
2022/06/24 12:36:10;;;;;;;3.22;1.48;;;23.50;93.70;;;;;;5085728;28;20048;-59
2022/06/24 12:38:53;;;;;;;4.15;1.60;;;23.30;92.60;;;;;;5073805;28;20045;-59
2022/06/24 12:41:20;;;;;;;6.20;1.77;;;23.20;94.00;;;;;;5082468;28;20090;-59
2022/06/24 12:43:57;;;;;;;6.80;2.17;;;23.20;94.00;;;;;;5078179;28;20048;-59
2022/06/24 12:46:27;;;;;;;2.38;1.38;;;23.00;93.60;;;;;;5087828;28;20167;-58
2022/06/24 12:51:43;;;;;;;3.40;1.35;;;22.60;93.60;;;;;;5076803;28;20049;-59
2022/06/24 12:54:10;;;;;;;4.38;1.27;;;22.50;93.60;;;;;;5086004;28;20083;-59
2022/06/24 12:56:37;;;;;;;4.28;1.50;;;22.30;94.00;;;;;;5076743;28;20094;-59
2022/06/24 12:59:04;;;;;;;8.98;1.85;;;22.20;94.60;;;;;;5082439;28;20492;-59
2022/06/24 13:01:33;;;;;;;5.57;1.50;;;22.10;94.70;;;;;;5078694;28;20051;-58